createdAt,value
2022-10-21T00:01:56.800Z,59.70
2022-10-21T00:04:46.102Z,59.70
2022-10-21T00:07:36.061Z,59.70
2022-10-21T00:10:25.444Z,59.80
2022-10-21T00:13:14.812Z,59.70
2022-10-21T00:16:09.481Z,59.70
2022-10-21T00:18:58.801Z,59.80
2022-10-21T00:21:48.117Z,59.80
2022-10-21T00:24:37.698Z,59.70
2022-10-21T00:27:27.338Z,59.80
2022-10-21T00:30:16.658Z,59.70
2022-10-21T00:33:07.351Z,59.70
2022-10-21T00:35:59.703Z,59.80
2022-10-21T00:38:50.146Z,59.80
2022-10-21T00:41:39.454Z,59.80
2022-10-21T00:44:29.068Z,59.90
2022-10-21T00:47:22.754Z,59.90
2022-10-21T00:50:25.534Z,60.10
2022-10-21T00:53:17.158Z,60.50
2022-10-21T00:56:15.611Z,60.40
2022-10-21T00:59:07.776Z,60.70
2022-10-21T01:01:57.171Z,60.70
2022-10-21T01:04:46.993Z,60.70
2022-10-21T01:07:40.399Z,60.90
2022-10-21T01:10:30.873Z,61.10
2022-10-21T01:13:29.181Z,61.20
2022-10-21T01:16:24.517Z,61.60
2022-10-21T01:19:57.729Z,61.60
2022-10-21T01:23:34.702Z,61.70
2022-10-21T01:26:58.961Z,61.90
2022-10-21T01:30:40.389Z,61.90
2022-10-21T01:33:44.445Z,61.80
2022-10-21T01:36:42.809Z,61.90
2022-10-21T01:39:39.905Z,62.00
2022-10-21T01:42:37.084Z,62.00
2022-10-21T01:45:33.617Z,62.10
2022-10-21T01:48:29.115Z,62.20
2022-10-21T01:51:20.326Z,62.20
2022-10-21T01:54:15.433Z,62.20
2022-10-21T01:57:07.396Z,62.20
2022-10-21T02:00:00.615Z,62.20
2022-10-21T02:02:51.080Z,62.30
2022-10-21T02:05:42.132Z,62.30
2022-10-21T02:08:31.578Z,62.40
2022-10-21T02:11:21.162Z,62.50
2022-10-21T02:14:15.447Z,62.70
2022-10-21T02:17:05.633Z,62.70
2022-10-21T02:19:56.199Z,62.80
2022-10-21T02:22:49.106Z,62.80
2022-10-21T02:25:42.199Z,63.10
2022-10-21T02:28:31.681Z,63.10
2022-10-21T02:31:38.988Z,63.10
2022-10-21T02:34:38.532Z,63.30
2022-10-21T02:37:34.176Z,63.20
2022-10-21T02:40:31.717Z,63.30
2022-10-21T02:43:27.142Z,63.40
2022-10-21T02:46:17.124Z,63.30
2022-10-21T02:49:06.836Z,63.30
2022-10-21T02:51:56.151Z,63.40
2022-10-21T02:54:45.482Z,63.40
2022-10-21T02:57:36.488Z,63.40
2022-10-21T03:00:29.555Z,63.40
2022-10-21T03:03:22.102Z,63.40
2022-10-21T03:06:11.452Z,63.40
2022-10-21T03:09:00.787Z,63.30
2022-10-21T03:11:50.213Z,63.20
2022-10-21T03:14:40.908Z,63.30
2022-10-21T03:17:30.193Z,63.40
2022-10-21T03:20:19.502Z,63.40
2022-10-21T03:23:09.040Z,63.40
2022-10-21T03:25:58.386Z,63.60
2022-10-21T03:28:47.744Z,63.60
2022-10-21T03:31:38.508Z,63.70
2022-10-21T03:34:27.854Z,63.80
2022-10-21T03:37:17.172Z,64.00
2022-10-21T03:40:11.473Z,63.80
2022-10-21T03:43:01.810Z,63.90
2022-10-21T03:45:51.200Z,64.00
2022-10-21T03:48:41.882Z,63.90
2022-10-21T03:51:31.202Z,63.90
2022-10-21T03:54:20.707Z,63.70
2022-10-21T03:57:10.178Z,63.70
2022-10-21T03:59:59.587Z,64.10
2022-10-21T04:02:49.201Z,63.80
2022-10-21T04:05:39.881Z,63.70
2022-10-21T04:08:29.306Z,63.70
2022-10-21T04:11:18.839Z,63.90
2022-10-21T04:14:11.533Z,63.90
2022-10-21T04:17:07.544Z,63.80
2022-10-21T04:19:57.294Z,63.90
2022-10-21T04:22:48.028Z,63.70
2022-10-21T04:25:37.341Z,63.70
2022-10-21T04:28:26.851Z,63.70
2022-10-21T04:31:16.222Z,63.70
2022-10-21T04:34:05.595Z,63.60
2022-10-21T04:36:54.877Z,63.70
2022-10-21T04:39:45.561Z,63.60
2022-10-21T04:42:34.970Z,63.60
2022-10-21T04:45:24.314Z,63.60
2022-10-21T04:48:13.807Z,63.60
2022-10-21T04:51:03.165Z,63.70
2022-10-21T04:53:52.536Z,63.70
2022-10-21T04:56:43.405Z,63.90
2022-10-21T04:59:32.789Z,64.40
2022-10-21T05:02:25.313Z,64.70
2022-10-21T05:05:15.026Z,64.80
2022-10-21T05:08:07.019Z,65.40
2022-10-21T05:11:00.698Z,65.10
2022-10-21T05:13:51.490Z,65.10
2022-10-21T05:16:40.778Z,65.30
2022-10-21T05:19:31.339Z,65.50
2022-10-21T05:22:20.785Z,65.40
2022-10-21T05:25:10.738Z,65.40
2022-10-21T05:28:00.054Z,65.50
2022-10-21T05:30:50.980Z,65.50
2022-10-21T05:33:40.641Z,65.50
2022-10-21T05:36:36.149Z,65.70
2022-10-21T05:39:25.686Z,66.20
2022-10-21T05:42:15.022Z,66.60
2022-10-21T05:45:04.920Z,66.00
2022-10-21T05:47:55.645Z,66.20
2022-10-21T05:50:45.358Z,66.30
2022-10-21T05:53:34.696Z,66.60
2022-10-21T05:56:24.034Z,66.70
2022-10-21T05:59:13.381Z,66.80
2022-10-21T06:02:02.759Z,66.80
2022-10-21T06:04:53.503Z,67.00
2022-10-21T06:07:42.860Z,67.00
2022-10-21T06:10:32.194Z,67.20
2022-10-21T06:13:21.536Z,67.30
2022-10-21T06:16:12.642Z,67.40
2022-10-21T06:19:02.117Z,67.50
2022-10-21T06:21:54.271Z,67.50
2022-10-21T06:24:43.588Z,67.80
2022-10-21T06:27:32.908Z,67.90
2022-10-21T06:30:23.097Z,68.20
2022-10-21T06:33:12.423Z,68.40
2022-10-21T06:36:02.183Z,68.60
2022-10-21T06:38:52.840Z,68.90
2022-10-21T06:41:42.189Z,69.20
2022-10-21T06:44:32.735Z,69.40
2022-10-21T06:47:22.062Z,69.50
2022-10-21T06:50:13.839Z,69.70
2022-10-21T06:53:03.157Z,70.00
2022-10-21T06:56:02.362Z,70.20
2022-10-21T06:58:53.242Z,70.50
2022-10-21T07:01:59.178Z,70.50
2022-10-21T07:04:49.749Z,70.60
2022-10-21T07:07:39.349Z,70.70
2022-10-21T07:10:28.869Z,70.90
2022-10-21T07:13:24.869Z,71.30
2022-10-21T07:16:20.648Z,71.30
2022-10-21T07:19:12.192Z,71.30
2022-10-21T07:22:01.855Z,71.00
2022-10-21T07:24:51.297Z,70.70
2022-10-21T07:27:42.453Z,70.80
2022-10-21T07:30:41.098Z,71.10
2022-10-21T07:33:30.501Z,71.70
2022-10-21T07:36:23.205Z,72.90
2022-10-21T07:39:17.933Z,73.90
2022-10-21T07:42:09.231Z,74.30
2022-10-21T07:45:01.446Z,74.30
2022-10-21T07:47:55.032Z,73.10
2022-10-21T07:50:44.783Z,72.80
2022-10-21T07:53:34.660Z,71.30
2022-10-21T07:56:27.205Z,70.50
2022-10-21T07:59:17.916Z,70.50
2022-10-21T08:02:07.436Z,70.90
2022-10-21T08:04:58.202Z,70.90
2022-10-21T08:07:47.561Z,70.60
2022-10-21T08:10:42.258Z,70.80
2022-10-21T08:13:32.538Z,69.50
2022-10-21T08:16:22.234Z,69.40
2022-10-21T08:19:20.726Z,70.10
2022-10-21T08:22:11.552Z,70.80
2022-10-21T08:25:01.020Z,71.30
2022-10-21T08:27:50.522Z,71.00
2022-10-21T08:30:39.885Z,71.10
2022-10-21T08:33:29.218Z,72.50
2022-10-21T08:36:21.842Z,74.00
2022-10-21T08:39:12.655Z,75.40
2022-10-21T08:42:12.876Z,76.60
2022-10-21T08:45:07.388Z,76.90
2022-10-21T08:48:01.466Z,75.90
2022-10-21T08:50:53.625Z,76.30
2022-10-21T08:53:48.371Z,76.60
2022-10-21T08:56:39.481Z,76.20
2022-10-21T08:59:29.106Z,76.90
2022-10-21T09:02:30.943Z,75.10
2022-10-21T09:05:54.883Z,72.10
2022-10-21T09:09:01.989Z,69.70
2022-10-21T09:12:03.185Z,68.30
2022-10-21T09:15:16.459Z,66.20
2022-10-21T09:18:26.932Z,65.60
2022-10-21T09:21:24.052Z,65.50
2022-10-21T09:24:20.709Z,66.10
2022-10-21T09:27:15.145Z,66.00
2022-10-21T09:30:10.461Z,65.70
2022-10-21T09:33:01.127Z,65.00
2022-10-21T09:35:55.794Z,64.60
2022-10-21T09:38:55.469Z,64.70
2022-10-21T09:41:48.836Z,65.40
2022-10-21T09:44:42.109Z,67.00
2022-10-21T09:47:33.362Z,67.80
2022-10-21T09:50:22.909Z,68.20
2022-10-21T09:53:21.326Z,67.10
2022-10-21T09:56:19.187Z,65.80
2022-10-21T09:59:11.545Z,65.10
2022-10-21T10:02:09.874Z,64.50
2022-10-21T10:04:59.709Z,63.40
2022-10-21T10:07:49.357Z,63.50
2022-10-21T10:10:38.637Z,63.50
2022-10-21T10:13:29.176Z,63.50
2022-10-21T10:16:24.170Z,63.50
2022-10-21T10:19:19.806Z,63.30
2022-10-21T10:22:13.738Z,63.60
2022-10-21T10:25:10.134Z,63.60
2022-10-21T10:28:03.645Z,63.60
2022-10-21T10:30:56.379Z,63.50
2022-10-21T10:33:58.775Z,63.30
2022-10-21T10:36:50.959Z,63.30
2022-10-21T10:39:41.519Z,63.40
2022-10-21T10:42:37.742Z,63.40
2022-10-21T10:45:27.544Z,63.50
2022-10-21T10:48:24.349Z,63.90
2022-10-21T10:51:27.916Z,64.00
2022-10-21T10:54:21.470Z,64.30
2022-10-21T10:57:15.550Z,64.90
2022-10-21T11:00:08.601Z,65.00
2022-10-21T11:03:04.477Z,64.70
2022-10-21T11:05:59.091Z,64.20
2022-10-21T11:08:54.097Z,63.40
2022-10-21T11:11:47.567Z,63.20
2022-10-21T11:14:37.476Z,63.20
2022-10-21T11:17:32.545Z,63.00
2022-10-21T11:20:30.617Z,63.00
2022-10-21T11:23:44.187Z,62.80
2022-10-21T11:26:49.926Z,62.50
2022-10-21T11:29:51.294Z,62.10
2022-10-21T11:32:58.168Z,62.20
2022-10-21T11:35:59.950Z,62.10
2022-10-21T11:39:27.381Z,62.00
2022-10-21T11:42:31.458Z,61.90
2022-10-21T11:45:35.837Z,62.00
2022-10-21T11:48:48.699Z,62.20
2022-10-21T11:51:49.085Z,62.20
2022-10-21T11:55:10.537Z,62.10
2022-10-21T11:58:15.881Z,62.20
2022-10-21T12:01:23.947Z,62.40
2022-10-21T12:04:35.988Z,62.50
2022-10-21T12:07:51.090Z,62.60
2022-10-21T12:10:47.752Z,62.60
2022-10-21T12:13:45.275Z,62.80
2022-10-21T12:16:36.926Z,63.30
2022-10-21T12:19:27.592Z,63.00
2022-10-21T12:22:17.189Z,63.20
2022-10-21T12:25:23.009Z,63.60
2022-10-21T12:28:21.645Z,64.40
2022-10-21T12:31:29.456Z,64.50
2022-10-21T12:34:19.282Z,65.10
2022-10-21T12:37:47.663Z,64.50
2022-10-21T12:40:40.698Z,65.60
2022-10-21T12:43:30.044Z,65.10
2022-10-21T12:46:26.108Z,65.20
2022-10-21T12:49:26.828Z,65.80
2022-10-21T12:52:23.211Z,66.50
2022-10-21T12:55:23.927Z,66.10
2022-10-21T12:58:33.664Z,67.10
2022-10-21T13:01:42.693Z,67.20
2022-10-21T13:04:51.760Z,67.40
2022-10-21T13:07:41.096Z,68.00
2022-10-21T13:10:31.815Z,67.20
2022-10-21T13:13:43.409Z,67.70
2022-10-21T13:16:39.242Z,68.70
2022-10-21T13:19:35.463Z,68.80
2022-10-21T13:22:36.238Z,69.10
2022-10-21T13:25:28.379Z,69.10
2022-10-21T13:28:23.185Z,68.70
2022-10-21T13:31:22.529Z,69.30
2022-10-21T13:34:29.383Z,69.60
2022-10-21T13:37:29.057Z,69.70
2022-10-21T13:40:21.875Z,69.70
2022-10-21T13:43:18.275Z,69.40
2022-10-21T13:46:16.690Z,69.80
2022-10-21T13:49:06.678Z,70.30
2022-10-21T13:51:56.093Z,69.60
2022-10-21T13:54:45.620Z,70.00
2022-10-21T13:57:37.425Z,70.40
2022-10-21T14:00:29.610Z,71.30
2022-10-21T14:03:22.299Z,71.90
2022-10-21T14:06:13.355Z,72.80
2022-10-21T14:09:08.168Z,72.90
2022-10-21T14:12:01.892Z,73.60
2022-10-21T14:14:52.415Z,73.90
2022-10-21T14:17:49.686Z,73.70
2022-10-21T14:20:42.152Z,74.40
2022-10-21T14:23:31.974Z,74.50
2022-10-21T14:26:22.381Z,74.30
2022-10-21T14:29:12.566Z,74.40
2022-10-21T14:32:02.824Z,74.80
2022-10-21T14:35:04.180Z,74.70
2022-10-21T14:37:56.913Z,75.70
2022-10-21T14:40:57.627Z,75.10
2022-10-21T14:43:49.364Z,74.80
2022-10-21T14:46:44.730Z,75.00
2022-10-21T14:49:40.645Z,75.80
2022-10-21T14:52:37.069Z,75.40
2022-10-21T14:55:30.071Z,76.00
2022-10-21T14:58:24.106Z,76.10
2022-10-21T15:01:18.468Z,76.50
2022-10-21T15:04:08.605Z,76.90
2022-10-21T15:07:02.505Z,76.40
2022-10-21T15:10:18.170Z,77.20
2022-10-21T15:13:18.896Z,77.60
2022-10-21T15:16:20.929Z,76.80
2022-10-21T15:19:14.179Z,78.10
2022-10-21T15:22:05.061Z,77.20
2022-10-21T15:24:57.019Z,77.30
2022-10-21T15:27:46.702Z,77.40
2022-10-21T15:30:37.810Z,77.30
2022-10-21T15:33:27.447Z,77.40
2022-10-21T15:36:18.943Z,77.20
2022-10-21T15:39:09.412Z,77.20
2022-10-21T15:42:00.010Z,77.40
2022-10-21T15:44:51.139Z,77.80
2022-10-21T15:47:42.007Z,78.00
2022-10-21T15:50:31.507Z,78.20
2022-10-21T15:53:20.844Z,78.30
2022-10-21T15:56:13.312Z,78.20
2022-10-21T15:59:03.546Z,78.60
2022-10-21T16:01:53.646Z,78.60
2022-10-21T16:04:44.966Z,79.30
2022-10-21T16:07:34.595Z,79.60
2022-10-21T16:10:29.507Z,79.60
2022-10-21T16:13:18.818Z,80.20
2022-10-21T16:16:18.162Z,80.30
2022-10-21T16:19:07.806Z,81.30
2022-10-21T16:21:58.689Z,81.30
2022-10-21T16:24:48.000Z,82.10
2022-10-21T16:27:51.270Z,82.10
2022-10-21T16:30:44.824Z,82.80
2022-10-21T16:33:34.180Z,83.70
2022-10-21T16:36:26.620Z,85.10
2022-10-21T16:39:19.673Z,85.90
2022-10-21T16:42:09.865Z,87.10
2022-10-21T16:44:59.157Z,87.30
2022-10-21T16:47:53.039Z,87.20
2022-10-21T16:50:47.129Z,88.40
2022-10-21T16:53:36.438Z,89.40
2022-10-21T16:59:17.389Z,89.20
2022-10-21T17:02:17.724Z,89.30
2022-10-21T17:05:08.341Z,90.10
2022-10-21T17:07:58.592Z,89.80
2022-10-21T17:10:48.036Z,89.70
2022-10-21T17:13:38.761Z,89.60
2022-10-21T17:16:28.126Z,89.70
2022-10-21T17:19:17.470Z,88.50
2022-10-21T17:22:06.740Z,88.30
2022-10-21T17:24:56.092Z,87.90
2022-10-21T17:27:45.449Z,88.00
2022-10-21T17:30:36.321Z,87.90
2022-10-21T17:33:25.596Z,89.10
2022-10-21T17:36:15.817Z,89.60
2022-10-21T17:39:06.029Z,90.30
2022-10-21T17:41:55.638Z,90.70
2022-10-21T17:44:45.302Z,91.10
2022-10-21T17:47:36.945Z,91.40
2022-10-21T17:50:26.733Z,91.90
2022-10-21T17:53:16.047Z,91.90
2022-10-21T17:56:08.508Z,92.10
2022-10-21T17:58:58.749Z,92.70
2022-10-21T18:01:48.112Z,92.70
2022-10-21T18:04:38.871Z,92.80
2022-10-21T18:07:28.783Z,93.20
2022-10-21T18:10:18.281Z,93.00
2022-10-21T18:13:07.795Z,93.00
2022-10-21T18:16:03.456Z,93.00
2022-10-21T18:18:56.123Z,92.90
2022-10-21T18:21:49.335Z,92.60
2022-10-21T18:24:38.900Z,92.70
2022-10-21T18:27:28.271Z,92.50
2022-10-21T18:30:17.618Z,92.50
2022-10-21T18:33:06.924Z,92.70
2022-10-21T18:35:56.597Z,92.90
2022-10-21T18:38:47.286Z,93.00
2022-10-21T18:41:38.613Z,93.30
2022-10-21T18:44:29.408Z,93.00
2022-10-21T18:47:18.931Z,93.00
2022-10-21T18:50:10.961Z,93.10
2022-10-21T18:53:00.979Z,93.20
2022-10-21T18:55:51.715Z,93.20
2022-10-21T18:58:42.015Z,93.70
2022-10-21T19:01:31.457Z,93.70
2022-10-21T19:04:20.831Z,93.80
2022-10-21T19:07:10.166Z,94.00
2022-10-21T19:09:59.528Z,94.30
2022-10-21T19:12:52.464Z,94.40
2022-10-21T19:15:42.308Z,94.90
2022-10-21T19:18:31.708Z,94.60
2022-10-21T19:21:22.341Z,94.70
2022-10-21T19:24:11.805Z,94.90
2022-10-21T19:27:01.473Z,94.80
2022-10-21T19:29:52.720Z,95.00
2022-10-21T19:32:42.318Z,95.40
2022-10-21T19:35:31.831Z,95.10
2022-10-21T19:38:39.631Z,95.10
2022-10-21T19:41:30.471Z,95.30
2022-10-21T19:44:19.839Z,95.20
2022-10-21T19:47:10.612Z,95.40
2022-10-21T19:49:59.992Z,95.90
2022-10-21T19:52:49.329Z,95.70
2022-10-21T19:55:38.715Z,95.90
2022-10-21T19:58:28.160Z,96.00
2022-10-21T20:01:22.438Z,96.10
2022-10-21T20:04:13.353Z,96.40
2022-10-21T20:07:02.774Z,96.70
2022-10-21T20:09:52.211Z,96.30
2022-10-21T20:12:42.177Z,96.50
2022-10-21T20:15:31.711Z,96.70
2022-10-21T20:18:23.515Z,96.70
2022-10-21T20:21:17.385Z,96.80
2022-10-21T20:24:07.527Z,97.30
2022-10-21T20:26:59.763Z,97.00
2022-10-21T20:29:53.382Z,97.00
2022-10-21T20:32:44.778Z,97.10
2022-10-21T20:35:34.777Z,97.20
2022-10-21T20:38:25.805Z,97.50
2022-10-21T20:41:20.049Z,98.20
2022-10-21T20:44:13.592Z,98.40
2022-10-21T20:47:02.904Z,98.40
2022-10-21T20:49:52.263Z,98.20
2022-10-21T20:52:41.628Z,98.30
2022-10-21T20:55:32.316Z,98.40
2022-10-21T20:58:21.639Z,98.90
2022-10-21T21:01:13.743Z,98.70
2022-10-21T21:04:07.248Z,98.90
2022-10-21T21:06:56.636Z,98.70
2022-10-21T21:10:01.500Z,98.30
2022-10-21T21:12:53.289Z,98.10
2022-10-21T21:15:42.659Z,98.30
2022-10-21T21:18:32.072Z,97.90
2022-10-21T21:21:23.529Z,97.90
2022-10-21T21:24:12.949Z,98.20
2022-10-21T21:27:02.397Z,98.50
2022-10-21T21:29:53.143Z,99.00
2022-10-21T21:32:42.870Z,99.70
2022-10-21T21:35:32.619Z,99.80
2022-10-21T21:38:22.013Z,99.90
2022-10-21T21:41:11.948Z,99.90
2022-10-21T21:44:01.363Z,99.90
2022-10-21T21:46:52.128Z,99.90
2022-10-21T21:49:42.071Z,99.90
2022-10-21T21:52:32.057Z,99.90
2022-10-21T21:55:21.796Z,99.90
2022-10-21T21:58:11.420Z,99.90
2022-10-21T22:01:10.745Z,99.90
2022-10-21T22:04:01.915Z,99.90
2022-10-21T22:06:51.283Z,99.90
2022-10-21T22:09:40.622Z,99.90
2022-10-21T22:12:29.974Z,99.90
2022-10-21T22:15:36.124Z,99.90
2022-10-21T22:18:29.214Z,99.90
2022-10-21T22:21:20.702Z,99.90
2022-10-21T22:24:10.084Z,99.90
2022-10-21T22:26:59.405Z,99.90
2022-10-21T22:29:48.744Z,99.90
2022-10-21T22:32:38.277Z,99.90
2022-10-21T22:35:28.294Z,99.90
2022-10-21T22:38:19.100Z,99.90
2022-10-21T22:41:12.423Z,99.90
2022-10-21T22:44:02.448Z,99.80
2022-10-21T22:46:51.742Z,99.50
2022-10-21T22:49:41.040Z,99.30
2022-10-21T22:52:30.345Z,99.20
2022-10-21T22:55:21.084Z,99.20
2022-10-21T22:58:20.845Z,99.50
2022-10-21T23:01:11.440Z,99.90
2022-10-21T23:04:02.876Z,99.60
2022-10-21T23:06:52.358Z,99.30
2022-10-21T23:09:41.885Z,99.40
2022-10-21T23:12:32.533Z,99.50
2022-10-21T23:15:21.905Z,99.90
2022-10-21T23:18:11.705Z,99.70
2022-10-21T23:21:01.186Z,99.80
2022-10-21T23:23:50.539Z,99.90
2022-10-21T23:26:39.853Z,99.90
2022-10-21T23:29:30.788Z,99.90
2022-10-21T23:32:20.110Z,99.90
2022-10-21T23:35:09.961Z,99.90
2022-10-21T23:37:59.441Z,99.90
2022-10-21T23:40:48.802Z,99.90
2022-10-21T23:43:38.162Z,99.90
2022-10-21T23:46:28.853Z,99.90
2022-10-21T23:49:18.246Z,99.90
2022-10-21T23:52:07.569Z,99.90
2022-10-21T23:54:56.934Z,99.90
2022-10-21T23:57:46.231Z,99.90
